createdAt,value
2018-10-19T00:02:08.775Z,7.92
2018-10-19T00:04:37.064Z,8.45
2018-10-19T00:07:05.674Z,8.25
2018-10-19T00:09:33.871Z,8.00
2018-10-19T00:12:02.250Z,9.60
2018-10-19T00:14:30.571Z,7.80
2018-10-19T00:16:58.893Z,8.18
2018-10-19T00:19:27.237Z,7.42
2018-10-19T00:21:55.534Z,7.65
2018-10-19T00:24:23.835Z,9.03
2018-10-19T00:26:52.098Z,9.00
2018-10-19T00:29:20.408Z,9.20
2018-10-19T00:31:48.599Z,8.98
2018-10-19T00:34:16.811Z,7.80
2018-10-19T00:36:45.108Z,7.87
2018-10-19T00:39:13.838Z,7.17
2018-10-19T00:41:42.597Z,8.03
2018-10-19T00:44:11.231Z,7.22
2018-10-19T00:46:39.523Z,8.00
2018-10-19T00:49:07.977Z,7.97
2018-10-19T00:51:36.502Z,8.15
2018-10-19T00:54:05.042Z,7.62
2018-10-19T00:56:33.367Z,7.80
2018-10-19T00:59:01.638Z,7.45
2018-10-19T01:01:29.823Z,7.55
2018-10-19T01:03:58.006Z,7.70
2018-10-19T01:06:26.338Z,8.10
2018-10-19T01:08:54.599Z,7.62
2018-10-19T01:11:22.826Z,8.03
2018-10-19T01:13:51.015Z,8.70
2018-10-19T01:16:19.297Z,7.53
2018-10-19T01:18:47.553Z,8.43
2018-10-19T01:21:15.824Z,8.18
2018-10-19T01:23:44.028Z,8.10
2018-10-19T01:26:12.231Z,7.70
2018-10-19T01:28:40.500Z,8.30
2018-10-19T01:31:08.691Z,7.78
2018-10-19T01:33:36.891Z,8.23
2018-10-19T01:36:06.419Z,8.15
2018-10-19T01:38:35.010Z,8.20
2018-10-19T01:41:03.253Z,8.40
2018-10-19T01:43:31.345Z,8.73
2018-10-19T01:45:59.564Z,8.25
2018-10-19T01:48:28.342Z,8.18
2018-10-19T01:50:57.091Z,8.40
2018-10-19T01:53:25.242Z,9.33
2018-10-19T01:55:53.448Z,7.97
2018-10-19T01:58:22.036Z,8.45
2018-10-19T02:00:50.188Z,8.50
2018-10-19T02:03:18.368Z,8.58
2018-10-19T02:05:46.595Z,7.97
2018-10-19T02:08:15.000Z,8.10
2018-10-19T02:10:43.227Z,8.08
2018-10-19T02:13:11.403Z,8.58
2018-10-19T02:15:39.702Z,8.03
2018-10-19T02:18:08.013Z,6.90
2018-10-19T02:20:36.198Z,8.55
2018-10-19T02:23:04.435Z,8.33
2018-10-19T02:25:32.595Z,8.45
2018-10-19T02:28:01.034Z,8.73
2018-10-19T02:30:29.201Z,6.92
2018-10-19T02:32:57.383Z,8.10
2018-10-19T02:35:25.521Z,8.25
2018-10-19T02:37:53.672Z,7.65
2018-10-19T02:40:21.845Z,7.65
2018-10-19T02:42:50.035Z,8.35
2018-10-19T02:45:18.311Z,7.83
2018-10-19T02:47:46.415Z,7.90
2018-10-19T02:50:14.618Z,6.87
2018-10-19T02:52:42.762Z,7.05
2018-10-19T02:55:10.973Z,8.48
2018-10-19T02:57:39.178Z,9.33
2018-10-19T03:00:09.172Z,8.78
2018-10-19T03:02:37.371Z,7.87
2018-10-19T03:05:06.760Z,8.25
2018-10-19T03:07:34.935Z,8.93
2018-10-19T03:10:03.119Z,8.68
2018-10-19T03:12:31.275Z,9.30
2018-10-19T03:14:59.534Z,8.05
2018-10-19T03:17:27.633Z,8.00
2018-10-19T03:19:55.822Z,8.23
2018-10-19T03:22:24.071Z,9.18
2018-10-19T03:24:52.255Z,9.68
2018-10-19T03:27:20.490Z,7.97
2018-10-19T03:29:48.627Z,9.03
2018-10-19T03:32:16.799Z,8.15
2018-10-19T03:34:44.930Z,7.92
2018-10-19T03:37:13.162Z,7.70
2018-10-19T03:39:41.347Z,7.92
2018-10-19T03:42:09.509Z,9.15
2018-10-19T03:47:26.895Z,7.15
2018-10-19T03:49:55.088Z,8.05
2018-10-19T03:52:23.243Z,9.10
2018-10-19T03:54:51.416Z,7.42
2018-10-19T03:57:20.507Z,7.60
2018-10-19T03:59:49.227Z,8.98
2018-10-19T04:02:18.512Z,8.78
2018-10-19T04:04:46.723Z,7.50
2018-10-19T04:07:14.970Z,7.35
2018-10-19T04:09:43.171Z,7.85
2018-10-19T04:12:11.345Z,8.65
2018-10-19T04:14:39.506Z,8.20
2018-10-19T04:17:07.730Z,7.70
2018-10-19T04:19:35.906Z,8.43
2018-10-19T04:22:04.151Z,8.85
2018-10-19T04:24:32.367Z,8.50
2018-10-19T04:27:00.549Z,8.03
2018-10-19T04:29:28.719Z,7.75
2018-10-19T04:31:56.878Z,9.53
2018-10-19T04:34:25.130Z,9.88
2018-10-19T04:36:59.626Z,9.93
2018-10-19T04:39:27.835Z,10.95
2018-10-19T04:41:56.131Z,11.73
2018-10-19T04:44:24.376Z,12.70
2018-10-19T04:46:52.581Z,9.88
2018-10-19T04:49:20.756Z,11.93
2018-10-19T04:51:48.982Z,13.30
2018-10-19T04:54:17.471Z,11.25
2018-10-19T04:56:45.819Z,14.30
2018-10-19T04:59:14.174Z,14.00
2018-10-19T05:01:42.344Z,14.58
2018-10-19T05:04:10.562Z,16.57
2018-10-19T05:06:38.787Z,12.95
2018-10-19T05:09:08.872Z,14.40
2018-10-19T05:11:37.214Z,13.55
2018-10-19T05:14:05.437Z,13.30
2018-10-19T05:16:33.740Z,15.90
2018-10-19T05:19:02.010Z,14.18
2018-10-19T05:21:30.218Z,13.55
2018-10-19T05:23:58.416Z,14.80
2018-10-19T05:26:27.650Z,13.93
2018-10-19T05:28:55.876Z,14.25
2018-10-19T05:31:24.894Z,12.73
2018-10-19T05:33:54.798Z,11.85
2018-10-19T05:36:23.022Z,14.65
2018-10-19T05:38:51.318Z,12.98
2018-10-19T05:41:19.875Z,12.28
2018-10-19T05:43:48.095Z,13.32
2018-10-19T05:46:16.363Z,13.28
2018-10-19T05:48:44.607Z,14.30
2018-10-19T05:51:12.827Z,13.10
2018-10-19T05:53:41.051Z,13.45
2018-10-19T05:56:09.606Z,12.23
2018-10-19T05:58:37.950Z,13.48
2018-10-19T06:01:06.384Z,13.78
2018-10-19T06:03:34.619Z,13.20
2018-10-19T06:06:02.795Z,16.57
2018-10-19T06:08:30.979Z,13.08
2018-10-19T06:10:59.152Z,15.18
2018-10-19T06:13:27.415Z,14.25
2018-10-19T06:15:55.575Z,13.28
2018-10-19T06:18:23.806Z,13.65
2018-10-19T06:20:51.969Z,13.35
2018-10-19T06:23:20.125Z,16.73
2018-10-19T06:25:48.316Z,13.15
2018-10-19T06:28:16.472Z,14.68
2018-10-19T06:30:44.670Z,12.88
2018-10-19T06:33:12.846Z,13.72
2018-10-19T06:35:41.020Z,12.33
2018-10-19T06:38:09.230Z,11.90
2018-10-19T06:40:37.447Z,13.95
2018-10-19T06:43:06.414Z,11.97
2018-10-19T06:45:34.590Z,11.97
2018-10-19T06:48:02.832Z,12.35
2018-10-19T06:50:31.012Z,13.40
2018-10-19T06:52:59.240Z,11.68
2018-10-19T06:55:27.404Z,11.40
2018-10-19T06:57:55.621Z,11.90
2018-10-19T07:00:23.856Z,12.53
2018-10-19T07:02:52.055Z,11.93
2018-10-19T07:05:20.968Z,10.30
2018-10-19T07:07:49.215Z,10.70
2018-10-19T07:10:17.365Z,10.45
2018-10-19T07:12:45.566Z,10.88
2018-10-19T07:15:13.796Z,10.38
2018-10-19T07:17:41.990Z,11.55
2018-10-19T07:20:11.144Z,11.38
2018-10-19T07:22:39.552Z,11.30
2018-10-19T07:25:08.327Z,9.15
2018-10-19T07:27:36.585Z,9.80
2018-10-19T07:30:05.379Z,10.32
2018-10-19T07:32:33.569Z,9.58
2018-10-19T07:35:01.826Z,8.90
2018-10-19T07:37:29.923Z,9.18
2018-10-19T07:39:58.138Z,8.90
2018-10-19T07:42:26.434Z,7.95
2018-10-19T07:44:54.539Z,8.68
2018-10-19T07:47:22.899Z,8.88
2018-10-19T07:49:50.943Z,8.05
2018-10-19T07:52:19.152Z,8.48
2018-10-19T07:54:47.364Z,9.93
2018-10-19T07:57:15.530Z,9.18
2018-10-19T07:59:43.729Z,8.80
2018-10-19T08:02:12.040Z,8.98
2018-10-19T08:04:40.152Z,8.98
2018-10-19T08:07:08.371Z,8.55
2018-10-19T08:09:36.581Z,9.48
2018-10-19T08:12:04.825Z,9.80
2018-10-19T08:14:32.991Z,8.95
2018-10-19T08:17:01.281Z,9.28
2018-10-19T08:19:29.483Z,9.93
2018-10-19T08:21:57.704Z,8.70
2018-10-19T08:24:25.895Z,9.40
2018-10-19T08:26:54.196Z,8.93
2018-10-19T08:29:22.447Z,10.03
2018-10-19T08:31:50.699Z,9.00
2018-10-19T08:34:18.890Z,9.70
2018-10-19T08:36:47.073Z,9.88
2018-10-19T08:39:15.335Z,9.35
2018-10-19T08:41:43.632Z,9.98
2018-10-19T08:44:11.737Z,9.60
2018-10-19T08:46:41.171Z,10.10
2018-10-19T08:49:10.808Z,9.10
2018-10-19T08:51:39.817Z,8.48
2018-10-19T08:54:08.407Z,9.15
2018-10-19T08:56:36.710Z,10.10
2018-10-19T08:59:04.942Z,9.25
2018-10-19T09:01:33.198Z,9.00
2018-10-19T09:04:01.450Z,9.00
2018-10-19T09:06:29.667Z,8.90
2018-10-19T09:08:57.875Z,10.53
2018-10-19T09:11:26.212Z,8.73
2018-10-19T09:13:54.369Z,9.90
2018-10-19T09:16:22.623Z,8.27
2018-10-19T09:18:50.830Z,9.30
2018-10-19T09:21:19.051Z,9.27
2018-10-19T09:23:47.284Z,8.90
2018-10-19T09:26:15.550Z,9.10
2018-10-19T09:28:43.764Z,9.07
2018-10-19T09:31:12.004Z,9.90
2018-10-19T09:33:42.210Z,9.40
2018-10-19T09:36:10.640Z,9.60
2018-10-19T09:38:39.042Z,9.77
2018-10-19T09:41:07.400Z,10.97
2018-10-19T09:43:35.516Z,9.50
2018-10-19T09:46:03.735Z,10.90
2018-10-19T09:48:31.908Z,10.80
2018-10-19T09:51:00.132Z,11.50
2018-10-19T09:53:28.548Z,12.63
2018-10-19T09:55:56.747Z,12.20
2018-10-19T09:58:24.980Z,12.77
2018-10-19T10:00:55.205Z,12.53
2018-10-19T10:03:23.415Z,10.47
2018-10-19T10:05:51.807Z,10.90
2018-10-19T10:08:20.033Z,12.13
2018-10-19T10:10:48.434Z,10.80
2018-10-19T10:13:16.740Z,10.00
2018-10-19T10:15:45.196Z,10.63
2018-10-19T10:18:13.427Z,10.87
2018-10-19T10:20:41.636Z,9.20
2018-10-19T10:23:09.845Z,10.57
2018-10-19T10:25:38.053Z,10.90
2018-10-19T10:28:06.324Z,16.73
2018-10-19T10:30:34.532Z,16.67
2018-10-19T10:33:02.705Z,26.13
2018-10-19T10:35:30.901Z,27.87
2018-10-19T10:37:59.079Z,24.37
2018-10-19T10:40:27.673Z,24.60
2018-10-19T10:42:55.942Z,24.50
2018-10-19T10:45:24.125Z,27.17
2018-10-19T10:47:52.768Z,26.57
2018-10-19T10:50:21.030Z,26.17
2018-10-19T10:52:51.319Z,28.20
2018-10-19T10:55:19.539Z,29.00
2018-10-19T10:57:47.914Z,27.27
2018-10-19T11:00:16.124Z,26.73
2018-10-19T11:02:44.514Z,27.37
2018-10-19T11:05:12.741Z,28.27
2018-10-19T11:07:41.059Z,25.87
2018-10-19T11:10:09.552Z,26.40
2018-10-19T11:12:37.679Z,25.80
2018-10-19T11:15:06.528Z,27.57
2018-10-19T11:17:34.767Z,27.90
2018-10-19T11:20:03.248Z,28.87
2018-10-19T11:22:31.484Z,28.97
2018-10-19T11:24:59.728Z,29.73
2018-10-19T11:27:27.900Z,27.60
2018-10-19T11:29:56.220Z,28.07
2018-10-19T11:32:24.402Z,26.00
2018-10-19T11:34:52.656Z,28.20
2018-10-19T11:37:21.000Z,28.43
2018-10-19T11:40:00.495Z,26.80
2018-10-19T11:42:29.127Z,28.40
2018-10-19T11:44:57.371Z,27.37
2018-10-19T11:47:25.606Z,24.70
2018-10-19T11:49:53.896Z,28.13
2018-10-19T11:52:22.132Z,27.27
2018-10-19T11:54:50.344Z,28.00
2018-10-19T11:57:18.568Z,26.57
2018-10-19T11:59:46.765Z,27.50
2018-10-19T12:02:15.048Z,28.70
2018-10-19T12:04:43.328Z,26.00
2018-10-19T12:07:11.564Z,28.67
2018-10-19T12:09:39.734Z,28.60
2018-10-19T12:12:07.940Z,28.20
2018-10-19T12:14:36.182Z,27.60
2018-10-19T12:17:04.477Z,28.30
2018-10-19T12:19:32.672Z,28.33
2018-10-19T12:22:00.913Z,30.07
2018-10-19T12:24:29.124Z,26.60
2018-10-19T12:26:57.396Z,27.77
2018-10-19T12:29:25.552Z,28.00
2018-10-19T12:31:53.933Z,25.37
2018-10-19T12:34:22.322Z,26.33
2018-10-19T12:36:50.660Z,23.90
2018-10-19T12:39:19.049Z,28.80
2018-10-19T12:41:47.427Z,26.70
2018-10-19T12:44:15.694Z,24.20
2018-10-19T12:46:57.608Z,25.20
2018-10-19T12:49:25.853Z,26.37
2018-10-19T12:51:54.112Z,27.93
2018-10-19T12:54:22.385Z,26.87
2018-10-19T12:56:50.520Z,26.37
2018-10-19T12:59:18.797Z,27.93
2018-10-19T13:01:46.960Z,26.90
2018-10-19T13:04:15.200Z,25.30
2018-10-19T13:06:43.412Z,28.50
2018-10-19T13:09:12.800Z,25.70
2018-10-19T13:11:41.088Z,27.97
2018-10-19T13:14:09.332Z,28.03
2018-10-19T13:16:37.522Z,27.97
2018-10-19T13:19:05.731Z,25.03
2018-10-19T13:21:33.946Z,27.50
2018-10-19T13:24:02.175Z,27.60
2018-10-19T13:26:30.638Z,27.50
2018-10-19T13:28:58.864Z,26.90
2018-10-19T13:31:27.049Z,25.43
2018-10-19T13:33:55.279Z,25.23
2018-10-19T13:36:23.481Z,23.90
2018-10-19T13:38:51.662Z,25.83
2018-10-19T13:41:19.881Z,27.93
2018-10-19T13:43:48.089Z,27.70
2018-10-19T13:46:16.317Z,23.50
2018-10-19T13:48:44.536Z,26.70
2018-10-19T13:51:12.813Z,24.03
2018-10-19T13:53:40.943Z,25.60
2018-10-19T13:56:09.235Z,23.60
2018-10-19T13:58:37.596Z,24.90
2018-10-19T14:01:06.422Z,26.47
2018-10-19T14:03:34.633Z,26.20
2018-10-19T14:06:02.830Z,27.43
2018-10-19T14:08:31.031Z,26.23
2018-10-19T14:10:59.259Z,25.03
2018-10-19T14:13:27.421Z,26.07
2018-10-19T14:15:55.613Z,27.70
2018-10-19T14:18:23.844Z,28.33
2018-10-19T14:20:52.069Z,26.97
2018-10-19T14:23:20.297Z,27.30
2018-10-19T14:25:48.500Z,27.90
2018-10-19T14:28:16.711Z,26.50
2018-10-19T14:30:44.906Z,27.10
2018-10-19T14:33:13.252Z,24.20
2018-10-19T14:35:41.323Z,26.10
2018-10-19T14:38:09.544Z,26.00
2018-10-19T14:40:37.743Z,26.10
2018-10-19T14:43:05.982Z,26.97
2018-10-19T14:45:34.172Z,25.20
2018-10-19T14:48:02.383Z,25.70
2018-10-19T14:50:30.589Z,27.47
2018-10-19T14:52:58.820Z,27.27
2018-10-19T14:55:26.965Z,26.90
2018-10-19T14:57:55.208Z,26.60
2018-10-19T15:00:23.396Z,25.80
2018-10-19T15:02:51.616Z,25.50
2018-10-19T15:05:20.203Z,24.50
2018-10-19T15:07:48.394Z,25.03
2018-10-19T15:10:18.156Z,26.13
2018-10-19T15:12:46.159Z,24.30
2018-10-19T15:15:16.809Z,24.93
2018-10-19T15:17:45.210Z,22.93
2018-10-19T15:20:14.315Z,24.73
2018-10-19T15:22:42.496Z,22.17
2018-10-19T15:25:11.069Z,22.57
2018-10-19T15:27:40.177Z,24.60
2018-10-19T15:30:11.859Z,23.13
2018-10-19T15:32:40.080Z,23.03
2018-10-19T15:35:08.708Z,22.70
2018-10-19T15:37:36.914Z,21.20
2018-10-19T15:40:05.433Z,20.20
2018-10-19T15:42:33.656Z,21.57
2018-10-19T15:45:01.922Z,21.47
2018-10-19T15:47:32.008Z,21.40
2018-10-19T15:50:00.283Z,19.87
2018-10-19T15:52:28.875Z,19.13
2018-10-19T15:54:57.130Z,17.13
2018-10-19T15:57:25.425Z,19.60
2018-10-19T15:59:53.542Z,20.00
2018-10-19T16:02:22.310Z,17.20
2018-10-19T16:04:50.605Z,16.33
2018-10-19T16:07:19.176Z,13.33
2018-10-19T16:09:47.707Z,19.97
2018-10-19T16:12:16.016Z,17.10
2018-10-19T16:14:44.223Z,16.70
2018-10-19T16:17:12.546Z,16.93
2018-10-19T16:19:41.158Z,18.97
2018-10-19T16:22:09.396Z,15.93
2018-10-19T16:24:37.660Z,18.43
2018-10-19T16:27:05.983Z,18.13
2018-10-19T16:29:34.164Z,17.23
2018-10-19T16:32:02.429Z,17.87
2018-10-19T16:34:30.690Z,17.00
2018-10-19T16:36:58.914Z,16.97
2018-10-19T16:39:27.119Z,17.07
2018-10-19T16:41:55.370Z,17.70
2018-10-19T16:44:23.581Z,16.13
2018-10-19T16:46:51.784Z,16.47
2018-10-19T16:49:19.992Z,15.90
2018-10-19T16:51:48.294Z,18.30
2018-10-19T16:54:16.546Z,16.57
2018-10-19T16:56:44.713Z,16.73
2018-10-19T16:59:12.956Z,17.70
2018-10-19T17:01:41.262Z,15.83
2018-10-19T17:04:09.591Z,17.77
2018-10-19T17:06:37.754Z,17.53
2018-10-19T17:09:09.598Z,16.90
2018-10-19T17:11:37.907Z,17.30
2018-10-19T17:14:06.242Z,18.07
2018-10-19T17:16:34.492Z,16.03
2018-10-19T17:19:02.802Z,17.97
2018-10-19T17:21:31.105Z,16.73
2018-10-19T17:23:59.483Z,17.37
2018-10-19T17:26:27.631Z,15.40
2018-10-19T17:28:55.973Z,17.97
2018-10-19T17:31:24.218Z,18.63
2018-10-19T17:33:52.832Z,20.10
2018-10-19T17:36:20.762Z,21.10
2018-10-19T17:38:49.020Z,24.70
2018-10-19T17:41:17.236Z,23.00
2018-10-19T17:43:45.696Z,22.70
2018-10-19T17:46:13.999Z,22.20
2018-10-19T17:48:42.216Z,23.73
2018-10-19T17:51:10.477Z,24.43
2018-10-19T17:53:38.692Z,23.90
2018-10-19T17:56:07.669Z,24.90
2018-10-19T17:58:36.342Z,23.70
2018-10-19T18:01:04.981Z,23.60
2018-10-19T18:03:33.953Z,22.37
2018-10-19T18:06:03.134Z,21.70
2018-10-19T18:08:33.147Z,25.07
2018-10-19T18:11:02.255Z,25.37
2018-10-19T18:13:31.339Z,25.40
2018-10-19T18:16:00.265Z,25.10
2018-10-19T18:18:29.119Z,26.80
2018-10-19T18:20:58.183Z,23.63
2018-10-19T18:23:27.640Z,23.30
2018-10-19T18:26:03.325Z,24.97
2018-10-19T18:28:32.475Z,25.33
2018-10-19T18:31:01.265Z,22.07
2018-10-19T18:33:38.810Z,23.83
2018-10-19T18:36:07.809Z,24.63
2018-10-19T18:38:36.782Z,23.20
2018-10-19T18:41:06.872Z,24.83
2018-10-19T18:43:35.663Z,26.40
2018-10-19T18:46:05.513Z,24.97
2018-10-19T18:48:35.192Z,25.07
2018-10-19T18:51:04.638Z,23.43
2018-10-19T18:53:33.689Z,22.10
2018-10-19T18:56:02.762Z,21.43
2018-10-19T18:58:32.497Z,22.00
2018-10-19T19:01:01.495Z,23.33
2018-10-19T19:03:31.156Z,21.77
2018-10-19T19:06:00.057Z,23.80
2018-10-19T19:08:31.653Z,23.83
2018-10-19T19:11:01.451Z,23.83
2018-10-19T19:13:31.952Z,25.43
2018-10-19T19:16:02.213Z,24.27
2018-10-19T19:18:32.641Z,23.22
2018-10-19T19:21:02.573Z,22.75
2018-10-19T19:23:34.339Z,23.45
2018-10-19T19:26:08.801Z,25.00
2018-10-19T19:28:40.521Z,23.75
2018-10-19T19:31:10.066Z,25.65
2018-10-19T19:33:44.819Z,21.70
2018-10-19T19:36:13.571Z,22.25
2018-10-19T19:38:43.211Z,22.90
2018-10-19T19:41:17.574Z,23.52
2018-10-19T19:43:47.075Z,25.62
2018-10-19T19:46:16.465Z,23.92
2018-10-19T19:48:50.774Z,24.20
2018-10-19T19:51:20.150Z,22.02
2018-10-19T19:53:49.149Z,23.22
2018-10-19T19:56:18.290Z,22.60
2018-10-19T19:58:48.566Z,21.00
2018-10-19T20:01:21.713Z,20.70
2018-10-19T20:03:52.531Z,22.87
2018-10-19T20:06:24.458Z,21.73
2018-10-19T20:08:57.155Z,21.40
2018-10-19T20:11:29.985Z,23.02
2018-10-19T20:14:00.911Z,22.75
2018-10-19T20:16:31.275Z,22.67
2018-10-19T20:19:00.930Z,22.77
2018-10-19T20:21:31.118Z,22.25
2018-10-19T20:24:00.979Z,21.20
2018-10-19T20:26:31.738Z,21.85
2018-10-19T20:29:01.958Z,23.77
2018-10-19T20:31:34.406Z,25.43
2018-10-19T20:34:05.788Z,25.12
2018-10-19T20:36:40.843Z,23.00
2018-10-19T20:39:12.296Z,26.57
2018-10-19T20:41:47.327Z,27.55
2018-10-19T20:44:19.992Z,23.73
2018-10-19T20:46:53.575Z,23.50
2018-10-19T20:49:34.508Z,23.30
2018-10-19T20:52:07.266Z,22.93
2018-10-19T20:54:41.254Z,21.95
2018-10-19T20:57:11.331Z,23.77
2018-10-19T20:59:41.444Z,21.75
2018-10-19T21:02:11.950Z,23.85
2018-10-19T21:04:43.141Z,22.05
2018-10-19T21:07:15.881Z,21.50
2018-10-19T21:09:53.895Z,21.45
2018-10-19T21:12:24.545Z,22.95
2018-10-19T21:14:55.750Z,20.80
2018-10-19T21:17:28.728Z,21.48
2018-10-19T21:19:59.701Z,22.93
2018-10-19T21:22:29.843Z,26.17
2018-10-19T21:24:59.129Z,25.00
2018-10-19T21:27:30.094Z,26.80
2018-10-19T21:30:00.163Z,26.00
2018-10-19T21:32:29.937Z,28.65
2018-10-19T21:35:02.742Z,25.75
2018-10-19T21:37:33.706Z,26.20
2018-10-19T21:40:07.443Z,26.10
2018-10-19T21:42:37.269Z,27.05
2018-10-19T21:45:08.621Z,27.67
2018-10-19T21:47:37.978Z,28.00
2018-10-19T21:50:12.935Z,28.38
2018-10-19T21:52:45.044Z,26.57
2018-10-19T21:55:14.000Z,23.85
2018-10-19T21:57:44.077Z,24.90
2018-10-19T22:00:15.457Z,23.35
2018-10-19T22:02:47.991Z,23.18
2018-10-19T22:05:17.528Z,23.90
2018-10-19T22:07:47.351Z,24.18
2018-10-19T22:10:22.666Z,25.35
2018-10-19T22:13:00.042Z,25.30
2018-10-19T22:15:30.878Z,25.72
2018-10-19T22:18:04.401Z,22.30
2018-10-19T22:20:39.809Z,24.55
2018-10-19T22:23:16.419Z,25.45
2018-10-19T22:25:46.145Z,24.77
2018-10-19T22:28:18.841Z,23.75
2018-10-19T22:30:50.808Z,24.05
2018-10-19T22:33:20.994Z,22.00
2018-10-19T22:35:50.972Z,22.77
2018-10-19T22:38:26.056Z,24.12
2018-10-19T22:41:00.311Z,24.65
2018-10-19T22:43:33.138Z,24.55
2018-10-19T22:46:03.954Z,23.05
2018-10-19T22:48:34.040Z,23.50
2018-10-19T22:51:05.580Z,23.70
2018-10-19T22:53:55.757Z,23.83
2018-10-19T22:56:25.036Z,23.70
2018-10-19T22:59:06.490Z,24.92
2018-10-19T23:01:42.494Z,24.82
2018-10-19T23:04:16.937Z,23.70
2018-10-19T23:06:50.769Z,25.37
2018-10-19T23:09:23.630Z,23.42
2018-10-19T23:12:16.480Z,26.50
2018-10-19T23:14:55.284Z,23.90
2018-10-19T23:17:32.140Z,24.20
2018-10-19T23:20:10.748Z,24.37
2018-10-19T23:22:46.848Z,24.67
2018-10-19T23:25:17.480Z,23.55
2018-10-19T23:27:47.203Z,23.85
2018-10-19T23:30:17.934Z,24.25
2018-10-19T23:32:50.528Z,23.60
2018-10-19T23:35:20.280Z,23.80
2018-10-19T23:37:50.217Z,25.48
2018-10-19T23:40:19.746Z,23.35
2018-10-19T23:42:49.650Z,25.48
2018-10-19T23:45:20.297Z,24.60
2018-10-19T23:47:50.046Z,24.52
2018-10-19T23:50:20.518Z,24.07
2018-10-19T23:52:53.493Z,25.97
2018-10-19T23:55:25.988Z,24.35
2018-10-19T23:57:55.943Z,23.35
